Time;durP1;ratioP1;P1;durP2;ratioP2;P2;SDS_P1;SDS_P2;PMS_P1;PMS_P2;Temp;Humidity;BMP_temperature;BMP_pressure;BME280_temperature;BME280_humidity;BME280_pressure;Samples;Min_cycle;Max_cycle;Signal;HPM_P1;HPM_P2
2021/12/16 00:01:46;;;;;;;38.50;19.30;;;;;;;-0.59;84.01;98562.90;108258;1269;68807;-70
2021/12/16 00:07:19;;;;;;;25.70;15.10;;;;;;;-0.61;83.97;98567.01;108293;1271;59728;-69
2021/12/16 00:09:56;;;;;;;41.80;21.70;;;;;;;-0.59;83.62;98562.38;108320;1269;70733;-71
2021/12/16 00:35:00;;;;;;;34.30;18.40;;;;;;;-0.79;83.95;98567.02;108146;1273;59671;-72
2021/12/16 00:37:31;;;;;;;24.90;15.00;;;;;;;-0.84;84.03;98565.18;108274;1269;71521;-71
2021/12/16 00:40:01;;;;;;;27.60;14.80;;;;;;;-0.86;83.99;98573.58;108294;1267;68375;-69
2021/12/16 00:42:40;;;;;;;32.20;18.40;;;;;;;-0.91;84.35;98569.87;108255;1270;68844;-67
2021/12/16 00:48:09;;;;;;;23.40;14.00;;;;;;;-1.03;84.35;98562.26;108180;1272;60078;-67
2021/12/16 00:56:10;;;;;;;21.10;12.80;;;;;;;-1.11;84.17;98557.02;108041;1274;69594;-68
2021/12/16 00:58:48;;;;;;;31.50;17.20;;;;;;;-1.13;84.15;98559.61;108200;1269;59761;-69
2021/12/16 01:01:48;;;;;;;31.90;17.70;;;;;;;-1.17;84.22;98557.92;108150;1272;59688;-72
2021/12/16 01:35:45;;;;;;;23.10;12.70;;;;;;;-1.88;84.77;98518.38;108278;1269;68615;-69
2021/12/16 01:55:07;;;;;;;19.20;11.10;;;;;;;-1.73;85.09;98513.34;108049;1270;59674;-67
2021/12/16 01:57:45;;;;;;;22.90;12.70;;;;;;;-1.69;85.23;98511.95;108228;1270;59723;-66
2021/12/16 02:00:46;;;;;;;23.60;12.30;;;;;;;-1.64;85.17;98511.23;108126;1272;71374;-72
2021/12/16 02:03:24;;;;;;;19.10;11.10;;;;;;;-1.58;85.22;98513.58;108189;1273;68651;-71
2021/12/16 02:08:27;;;;;;;15.00;9.90;;;;;;;-1.48;85.31;98515.06;108088;1273;59740;-67
2021/12/16 02:11:20;;;;;;;24.40;12.50;;;;;;;-1.44;84.99;98516.73;108157;1270;59761;-72
2021/12/16 02:39:27;;;;;;;34.00;20.50;;;;;;;-1.20;85.05;98492.27;108067;1270;59716;-73
2021/12/16 02:42:13;;;;;;;25.40;15.70;;;;;;;-1.21;85.84;98499.79;108309;1273;72100;-71
2021/12/16 02:50:09;;;;;;;24.80;13.90;;;;;;;-1.18;85.21;98498.39;108293;1269;59686;-70
2021/12/16 02:52:39;;;;;;;23.10;13.50;;;;;;;-1.17;85.13;98494.77;108281;1269;59691;-71
2021/12/16 02:55:12;;;;;;;16.10;10.20;;;;;;;-1.14;85.13;98488.80;108228;1269;71580;-67
2021/12/16 02:57:51;;;;;;;29.70;14.80;;;;;;;-1.12;84.83;98488.06;108289;1269;67739;-72
2021/12/16 03:00:21;;;;;;;30.70;16.60;;;;;;;-1.11;84.82;98486.38;108248;1269;68586;-70
2021/12/16 03:02:52;;;;;;;34.30;18.00;;;;;;;-1.11;85.16;98489.78;108318;1269;59700;-74
2021/12/16 03:05:22;;;;;;;30.20;17.30;;;;;;;-1.12;85.24;98486.71;108160;1269;59703;-69
2021/12/16 03:07:52;;;;;;;;;;;;;;;-1.14;85.36;98489.98;108185;1269;70770;-69
2021/12/16 03:13:07;;;;;;;29.40;15.40;;;;;;;-1.18;85.42;98492.06;108229;1270;68461;-73
2021/12/16 03:15:56;;;;;;;28.90;16.10;;;;;;;-1.19;85.49;98491.23;108221;1269;59747;-69
2021/12/16 03:21:25;;;;;;;31.00;16.10;;;;;;;-1.19;85.73;98498.59;108306;1272;70740;-69
2021/12/16 03:32:54;;;;;;;29.30;16.50;;;;;;;-1.17;85.57;98489.15;108095;1269;59738;-72
2021/12/16 03:38:01;;;;;;;19.60;9.80;;;;;;;-1.13;85.38;98485.70;108321;1269;68060;-70
2021/12/16 03:40:33;;;;;;;24.50;12.70;;;;;;;-1.09;84.85;98485.48;108324;1269;69250;-69
2021/12/16 03:43:21;;;;;;;19.50;11.60;;;;;;;-1.08;84.63;98480.86;108137;1272;59721;-68
2021/12/16 03:48:58;;;;;;;25.20;14.00;;;;;;;-1.05;84.38;98480.83;108161;1269;70146;-72
2021/12/16 03:51:44;;;;;;;25.90;15.80;;;;;;;-1.04;84.45;98488.01;108263;1269;69682;-70
2021/12/16 03:54:20;;;;;;;24.20;13.20;;;;;;;-1.02;84.74;98490.73;108058;1272;69432;-74
2021/12/16 03:56:54;;;;;;;26.00;15.10;;;;;;;-0.99;84.92;98488.83;108119;1268;59822;-73
2021/12/16 03:59:27;;;;;;;28.10;16.10;;;;;;;-0.99;85.63;98487.96;108109;1273;59764;-72
2021/12/16 04:02:13;;;;;;;23.80;13.30;;;;;;;-0.99;85.60;98485.41;108268;1269;70722;-71
2021/12/16 04:04:45;;;;;;;29.90;17.10;;;;;;;-0.97;85.71;98487.09;108283;1269;67691;-72
2021/12/16 04:07:15;;;;;;;25.60;15.60;;;;;;;-0.95;85.98;98486.56;108132;1269;68545;-71
2021/12/16 04:10:10;;;;;;;22.80;13.30;;;;;;;-0.92;85.65;98487.05;108125;1272;59719;-70
2021/12/16 04:12:39;;;;;;;26.20;13.80;;;;;;;-0.89;85.42;98486.32;108050;1272;59768;-72
2021/12/16 04:15:10;;;;;;;25.20;15.10;;;;;;;-0.86;85.35;98489.55;107964;1272;71551;-72
2021/12/16 04:17:45;;;;;;;27.30;15.80;;;;;;;-0.87;85.23;98485.63;108021;1275;67717;-73
2021/12/16 04:20:16;;;;;;;34.30;18.60;;;;;;;-0.89;85.09;98487.34;108113;1271;68653;-74
2021/12/16 04:22:46;;;;;;;32.10;17.20;;;;;;;-0.91;85.24;98487.03;108047;1272;59835;-73
2021/12/16 04:25:23;;;;;;;32.00;18.80;;;;;;;-0.91;85.38;98481.23;108062;1274;59749;-72
2021/12/16 04:27:58;;;;;;;34.50;19.50;;;;;;;-0.93;85.60;98482.44;108183;1272;70664;-71
2021/12/16 04:30:29;;;;;;;35.20;18.50;;;;;;;-0.96;85.53;98482.30;108101;1272;67093;-72
2021/12/16 04:33:00;;;;;;;39.80;22.70;;;;;;;-1.00;85.81;98480.11;108059;1272;68694;-71
2021/12/16 04:35:32;;;;;;;41.50;21.80;;;;;;;-1.04;86.04;98477.75;108072;1272;59723;-73
2021/12/16 04:38:04;;;;;;;41.10;23.80;;;;;;;-1.08;86.32;98475.72;108160;1272;59669;-73
2021/12/16 04:40:36;;;;;;;26.00;14.10;;;;;;;-1.10;86.27;98474.04;108149;1272;71408;-74
2021/12/16 04:43:08;;;;;;;27.20;15.80;;;;;;;-1.05;85.92;98474.51;108150;1270;68749;-72
2021/12/16 04:46:03;;;;;;;31.60;18.00;;;;;;;-1.02;86.06;98474.30;108069;1272;69535;-73
2021/12/16 04:48:33;;;;;;;35.50;19.70;;;;;;;-1.00;86.15;98470.35;108140;1272;59720;-72
2021/12/16 04:51:05;;;;;;;29.20;14.30;;;;;;;-1.01;86.27;98477.05;108067;1272;59684;-71
2021/12/16 04:53:36;;;;;;;30.00;17.90;;;;;;;-0.98;86.05;98478.20;108056;1272;69735;-73
2021/12/16 04:56:09;;;;;;;21.50;11.10;;;;;;;-0.96;85.92;98473.73;108078;1272;68797;-69
2021/12/16 04:58:51;;;;;;;24.00;12.30;;;;;;;-0.90;85.63;98478.46;108085;1272;69438;-74
2021/12/16 05:01:23;;;;;;;28.50;15.80;;;;;;;-0.86;85.49;98473.47;108080;1272;59795;-71
2021/12/16 05:03:55;;;;;;;17.70;9.50;;;;;;;-0.84;85.29;98476.17;108157;1273;59725;-72
2021/12/16 05:06:25;;;;;;;23.80;13.60;;;;;;;-0.80;84.97;98481.79;108170;1272;70770;-70
2021/12/16 05:08:55;;;;;;;19.90;9.30;;;;;;;-0.76;84.80;98480.03;108136;1272;67700;-70
2021/12/16 05:11:34;;;;;;;17.50;9.30;;;;;;;-0.74;84.58;98479.84;108098;1272;69577;-71
2021/12/16 05:14:06;;;;;;;18.10;9.90;;;;;;;-0.71;84.40;98481.17;108102;1272;59715;-70
2021/12/16 05:16:37;;;;;;;27.20;13.00;;;;;;;-0.67;84.38;98480.27;108205;1269;59674;-70
2021/12/16 05:19:08;;;;;;;15.20;7.40;;;;;;;-0.65;84.11;98476.66;108351;1269;70628;-73
2021/12/16 05:24:30;;;;;;;19.30;9.80;;;;;;;-0.59;83.90;98477.29;108289;1269;68428;-67
2021/12/16 05:27:09;;;;;;;19.00;11.00;;;;;;;-0.58;83.44;98478.45;108225;1269;59712;-69
2021/12/16 05:29:39;;;;;;;16.20;7.90;;;;;;;-0.56;83.55;98481.68;108222;1272;59700;-71
2021/12/16 05:32:09;;;;;;;;;;;;;;;-0.54;83.44;98480.98;108267;1265;70038;-69
2021/12/16 05:34:39;;;;;;;18.70;10.30;;;;;;;-0.52;83.48;98481.98;108139;1270;68876;-71
2021/12/16 05:37:09;;;;;;;14.60;7.40;;;;;;;-0.50;83.26;98487.12;108274;1269;68579;-70
2021/12/16 05:39:41;;;;;;;18.70;9.20;;;;;;;-0.47;83.28;98484.34;108265;1272;59715;-73
2021/12/16 05:42:29;;;;;;;17.60;8.50;;;;;;;-0.47;82.83;98490.84;108362;1269;59620;-70
2021/12/16 05:44:58;;;;;;;16.60;9.50;;;;;;;-0.47;82.79;98489.46;108186;1272;70070;-72
2021/12/16 05:47:28;;;;;;;19.00;10.60;;;;;;;-0.46;82.79;98488.42;108351;1269;67717;-74
2021/12/16 05:49:59;;;;;;;15.60;7.60;;;;;;;-0.45;82.78;98489.29;108111;1272;69298;-74
2021/12/16 05:52:27;;;;;;;;;;;;;;;-0.45;82.86;98488.08;108147;1272;59785;-73
2021/12/16 05:54:58;;;;;;;14.00;8.40;;;;;;;-0.44;82.97;98488.41;108259;1269;59685;-73
2021/12/16 05:57:47;;;;;;;14.50;7.60;;;;;;;-0.43;82.74;98484.63;108118;1269;72068;-71
2021/12/16 06:00:24;;;;;;;16.40;9.30;;;;;;;-0.43;82.34;98484.80;108240;1272;67903;-73
2021/12/16 06:02:55;;;;;;;12.90;7.40;;;;;;;-0.43;82.38;98484.80;108018;1272;69901;-67
2021/12/16 06:05:24;;;;;;;14.50;7.00;;;;;;;-0.42;82.57;98481.02;108141;1269;59719;-67
2021/12/16 06:07:54;;;;;;;15.70;8.30;;;;;;;-0.42;82.48;98480.33;108299;1269;59694;-66
2021/12/16 06:13:12;;;;;;;19.90;9.50;;;;;;;-0.41;82.30;98478.63;108246;1269;68725;-68
2021/12/16 06:26:45;;;;;;;22.00;11.30;;;;;;;-0.41;82.03;98490.10;108236;1270;68776;-69
2021/12/16 06:29:14;;;;;;;19.10;10.60;;;;;;;-0.42;82.09;98499.68;108204;1269;68780;-69
2021/12/16 06:31:43;;;;;;;19.40;9.20;;;;;;;-0.41;82.20;98502.27;108247;1269;59707;-75
2021/12/16 06:34:12;;;;;;;19.30;10.80;;;;;;;-0.41;82.13;98505.17;108210;1269;59710;-73
2021/12/16 06:36:42;;;;;;;19.70;10.60;;;;;;;-0.40;82.26;98510.30;108258;1269;72237;-73
2021/12/16 06:39:12;;;;;;;15.40;7.60;;;;;;;-0.39;82.28;98512.00;108156;1272;67981;-73
2021/12/16 06:41:46;;;;;;;16.40;8.70;;;;;;;-0.38;82.24;98518.64;108104;1272;69446;-73
2021/12/16 06:44:28;;;;;;;16.30;10.10;;;;;;;-0.38;82.20;98514.88;108230;1269;60201;-72
2021/12/16 06:47:07;;;;;;;17.70;10.20;;;;;;;-0.37;82.17;98518.13;108200;1269;59716;-73
2021/12/16 06:49:39;;;;;;;20.20;11.30;;;;;;;-0.35;82.23;98519.83;108241;1269;72104;-72
2021/12/16 06:52:13;;;;;;;15.50;8.60;;;;;;;-0.35;82.19;98518.98;108228;1269;67617;-69
2021/12/16 06:55:03;;;;;;;27.20;13.20;;;;;;;-0.35;82.05;98518.79;108247;1269;68838;-73
2021/12/16 07:00:12;;;;;;;17.40;8.50;;;;;;;-0.35;82.00;98510.75;108216;1269;60020;-71
2021/12/16 07:05:16;;;;;;;21.20;11.20;;;;;;;-0.36;81.49;98510.59;108152;1272;67890;-70
2021/12/16 07:07:47;;;;;;;32.40;14.10;;;;;;;-0.37;81.32;98506.14;108271;1269;69455;-72
2021/12/16 07:10:18;;;;;;;30.00;15.80;;;;;;;-0.39;81.37;98504.79;108318;1269;60548;-71
2021/12/16 07:12:49;;;;;;;28.60;14.70;;;;;;;-0.45;80.82;98500.23;108371;1269;59707;-73
2021/12/16 07:15:26;;;;;;;28.70;14.00;;;;;;;-0.51;80.93;98497.73;108342;1269;71662;-73
2021/12/16 07:17:56;;;;;;;27.90;12.30;;;;;;;-0.51;81.08;98497.90;108275;1269;67689;-73
2021/12/16 07:20:29;;;;;;;19.00;9.50;;;;;;;-0.50;81.27;98506.13;108323;1269;68759;-72
2021/12/16 07:22:59;;;;;;;19.80;9.50;;;;;;;-0.46;81.51;98509.67;108364;1269;59760;-72
2021/12/16 07:25:29;;;;;;;21.50;11.10;;;;;;;-0.42;81.57;98516.31;108213;1269;59763;-71
2021/12/16 07:27:58;;;;;;;20.60;11.10;;;;;;;-0.39;81.64;98525.34;108290;1269;70889;-70
2021/12/16 07:30:27;;;;;;;18.80;10.00;;;;;;;-0.36;81.81;98527.89;108142;1272;68776;-74
2021/12/16 07:32:57;;;;;;;17.60;10.30;;;;;;;-0.32;81.98;98526.65;108305;1269;67993;-74
2021/12/16 07:35:27;;;;;;;25.10;12.90;;;;;;;-0.28;81.83;98528.66;108119;1269;59932;-73
2021/12/16 07:37:56;;;;;;;21.40;11.20;;;;;;;-0.27;81.73;98526.07;108089;1272;59671;-74
2021/12/16 07:40:27;;;;;;;24.50;12.40;;;;;;;-0.23;81.50;98524.31;108294;1269;71022;-74
2021/12/16 07:45:41;;;;;;;17.00;8.30;;;;;;;-0.24;81.34;98522.77;108271;1269;67960;-73
2021/12/16 07:48:13;;;;;;;24.20;12.90;;;;;;;-0.21;81.38;98521.89;108275;1269;59715;-73
2021/12/16 07:50:49;;;;;;;22.60;10.40;;;;;;;-0.20;81.19;98521.70;108296;1269;59758;-73
2021/12/16 07:53:19;;;;;;;17.10;9.60;;;;;;;-0.21;81.08;98521.37;108311;1269;70912;-74
2021/12/16 07:55:48;;;;;;;20.60;11.00;;;;;;;-0.22;80.93;98518.30;108335;1269;68591;-74
2021/12/16 07:58:19;;;;;;;22.30;11.50;;;;;;;-0.22;80.94;98519.86;108314;1269;69432;-74
2021/12/16 08:00:48;;;;;;;31.20;14.80;;;;;;;-0.22;81.01;98515.23;108146;1272;59819;-72
2021/12/16 08:03:17;;;;;;;23.40;10.80;;;;;;;-0.23;81.03;98516.77;108289;1269;59763;-73
2021/12/16 08:05:54;;;;;;;19.90;10.00;;;;;;;-0.21;81.09;98514.88;108323;1269;71562;-74
2021/12/16 08:08:24;;;;;;;25.00;11.50;;;;;;;-0.18;80.99;98514.48;108342;1269;69123;-73
2021/12/16 08:10:55;;;;;;;20.70;10.60;;;;;;;-0.18;80.92;98515.69;108266;1269;68652;-73
2021/12/16 08:13:25;;;;;;;20.40;10.00;;;;;;;-0.16;81.00;98518.91;108298;1269;59801;-72
2021/12/16 08:15:54;;;;;;;20.20;10.80;;;;;;;-0.16;80.94;98518.55;108345;1269;59679;-72
2021/12/16 08:18:23;;;;;;;17.80;9.70;;;;;;;-0.14;80.97;98513.23;108267;1269;72159;-71
2021/12/16 08:20:52;;;;;;;13.40;7.20;;;;;;;-0.13;81.01;98509.45;107718;1268;529916;-73
2021/12/16 08:23:22;;;;;;;15.10;9.80;;;;;;;-0.09;80.93;98511.27;108284;1269;69554;-72
2021/12/16 08:25:51;;;;;;;17.50;8.60;;;;;;;-0.06;80.92;98519.30;108081;1270;59721;-72
2021/12/16 08:28:22;;;;;;;18.80;9.60;;;;;;;-0.03;80.80;98516.52;108152;1269;59744;-68
2021/12/16 08:30:51;;;;;;;18.60;8.40;;;;;;;0.02;80.58;98521.77;108307;1269;71688;-72
2021/12/16 08:33:21;;;;;;;20.90;11.70;;;;;;;0.06;80.45;98522.92;108196;1272;67727;-72
2021/12/16 08:35:54;;;;;;;21.90;11.20;;;;;;;0.07;80.03;98520.48;108280;1269;68655;-73
2021/12/16 08:38:25;;;;;;;17.20;9.10;;;;;;;0.08;79.89;98524.61;108118;1272;60751;-70
2021/12/16 08:40:59;;;;;;;19.10;10.70;;;;;;;0.09;80.33;98531.45;108131;1272;59738;-73
2021/12/16 08:43:29;;;;;;;21.50;10.00;;;;;;;0.12;80.12;98533.30;108304;1269;72181;-68
2021/12/16 08:45:58;;;;;;;21.10;10.90;;;;;;;0.13;80.20;98533.45;108353;1269;67034;-69
2021/12/16 08:48:27;;;;;;;20.10;9.80;;;;;;;0.16;80.18;98533.41;108247;1269;68540;-75
2021/12/16 08:50:57;;;;;;;21.90;10.70;;;;;;;0.18;80.06;98531.83;108231;1269;59712;-72
2021/12/16 08:53:26;;;;;;;21.90;11.00;;;;;;;0.22;79.79;98532.98;108308;1269;59731;-70
2021/12/16 08:55:56;;;;;;;22.00;11.00;;;;;;;0.22;79.39;98529.73;108304;1269;71668;-70
2021/12/16 08:58:26;;;;;;;19.20;10.20;;;;;;;0.24;79.66;98532.62;108276;1269;68671;-67
2021/12/16 09:01:00;;;;;;;14.50;8.20;;;;;;;0.26;79.55;98533.61;108078;1272;68629;-73
2021/12/16 09:03:30;;;;;;;17.40;8.60;;;;;;;0.29;79.53;98526.21;108309;1269;59745;-75
2021/12/16 09:06:02;;;;;;;21.50;11.10;;;;;;;0.32;79.18;98522.21;108359;1269;59773;-75
2021/12/16 09:08:31;;;;;;;20.00;10.80;;;;;;;0.36;79.48;98516.67;108334;1269;71611;-75
2021/12/16 09:11:04;;;;;;;21.70;9.80;;;;;;;0.40;79.15;98509.07;108133;1272;68153;-70
2021/12/16 09:13:38;;;;;;;19.50;9.70;;;;;;;0.42;78.63;98502.70;108316;1269;69474;-71
2021/12/16 09:16:13;;;;;;;21.10;10.80;;;;;;;0.40;78.20;98499.11;108059;1270;59770;-74
2021/12/16 09:18:42;;;;;;;20.60;9.60;;;;;;;0.33;76.98;98499.05;108328;1269;59697;-73
2021/12/16 09:21:15;;;;;;;22.80;11.00;;;;;;;0.33;77.37;98502.48;108149;1270;71596;-76
2021/12/16 09:23:46;;;;;;;23.00;11.70;;;;;;;0.26;76.13;98496.59;108190;1270;68629;-72
2021/12/16 09:26:17;;;;;;;23.40;11.60;;;;;;;0.17;76.00;98497.38;108338;1269;69452;-74
2021/12/16 09:28:47;;;;;;;22.80;11.90;;;;;;;0.12;76.68;98498.32;108302;1270;59703;-73
2021/12/16 09:31:23;;;;;;;20.90;9.30;;;;;;;0.11;77.22;98496.12;108309;1269;59702;-74
2021/12/16 09:33:54;;;;;;;18.40;8.40;;;;;;;0.16;77.65;98497.92;108126;1271;71639;-74
2021/12/16 09:36:27;;;;;;;18.10;9.20;;;;;;;0.22;77.92;98498.54;108319;1269;68336;-73
2021/12/16 09:38:57;;;;;;;16.30;8.60;;;;;;;0.28;77.83;98501.88;108131;1272;68807;-72
2021/12/16 09:41:27;;;;;;;21.40;10.60;;;;;;;0.31;77.76;98492.23;108287;1269;59698;-73
2021/12/16 09:43:59;;;;;;;17.50;9.20;;;;;;;0.32;76.68;98488.09;108153;1272;59784;-73
2021/12/16 09:46:30;;;;;;;17.30;8.50;;;;;;;0.33;77.26;98484.99;108096;1272;71562;-74
2021/12/16 09:48:59;;;;;;;16.30;7.90;;;;;;;0.36;77.66;98488.03;108187;1272;67872;-73
2021/12/16 09:51:32;;;;;;;23.40;11.40;;;;;;;0.37;77.41;98483.05;108305;1269;68818;-73
2021/12/16 09:54:07;;;;;;;26.60;12.80;;;;;;;0.37;77.30;98483.05;108268;1268;59684;-73
2021/12/16 09:56:39;;;;;;;17.20;8.00;;;;;;;0.37;77.02;98477.38;108290;1269;59712;-70
2021/12/16 09:59:12;;;;;;;22.80;10.90;;;;;;;0.38;77.22;98477.90;108106;1272;72106;-74
2021/12/16 10:01:44;;;;;;;18.10;8.80;;;;;;;0.37;76.38;98479.45;108058;1271;69403;-73
2021/12/16 10:04:19;;;;;;;16.40;7.50;;;;;;;0.32;75.85;98482.10;108159;1272;70021;-73
2021/12/16 10:06:52;;;;;;;20.80;11.50;;;;;;;0.31;76.38;98482.29;108134;1271;59691;-71
2021/12/16 10:09:22;;;;;;;17.60;8.60;;;;;;;0.33;76.65;98476.41;108051;1272;60081;-69
2021/12/16 10:11:54;;;;;;;12.20;7.40;;;;;;;0.39;76.77;98469.66;108143;1272;71516;-71
2021/12/16 10:19:46;;;;;;;26.20;12.50;;;;;;;0.30;75.24;98465.14;108306;1269;59707;-73
2021/12/16 10:22:23;;;;;;;26.10;13.90;;;;;;;0.20;75.63;98461.67;108134;1272;59700;-73
2021/12/16 10:24:57;;;;;;;21.10;10.20;;;;;;;0.14;75.80;98460.25;108253;1270;71650;-70
2021/12/16 10:27:28;;;;;;;25.70;11.40;;;;;;;0.22;76.44;98454.98;108236;1268;69056;-72
2021/12/16 10:30:07;;;;;;;22.60;12.80;;;;;;;0.29;76.23;98455.57;108140;1269;67758;-73
2021/12/16 10:32:45;;;;;;;28.00;13.90;;;;;;;0.36;76.42;98458.20;108127;1272;59750;-69
2021/12/16 10:35:18;;;;;;;28.40;13.10;;;;;;;0.44;76.51;98456.17;108162;1272;59655;-72
2021/12/16 10:37:55;;;;;;;28.20;13.60;;;;;;;0.54;76.76;98448.13;108321;1269;71880;-69
2021/12/16 10:40:43;;;;;;;22.90;11.90;;;;;;;0.62;76.50;98442.86;108339;1269;67701;-72
2021/12/16 10:43:14;;;;;;;23.00;10.90;;;;;;;0.73;76.66;98444.57;108327;1269;70099;-72
2021/12/16 10:45:47;;;;;;;19.10;9.90;;;;;;;0.81;76.28;98438.59;108298;1269;59751;-72
2021/12/16 10:48:27;;;;;;;25.70;12.00;;;;;;;0.86;75.78;98435.41;108364;1269;59716;-73
2021/12/16 10:51:01;;;;;;;;;;;;;;;0.89;75.34;98440.34;108344;1269;71939;-74
2021/12/16 10:54:01;;;;;;;34.00;13.70;;;;;;;0.94;75.73;98439.40;108318;1269;68709;-69
2021/12/16 10:56:30;;;;;;;17.90;8.90;;;;;;;0.92;75.51;98434.10;108308;1269;70081;-70
2021/12/16 10:59:05;;;;;;;21.00;11.00;;;;;;;0.92;75.35;98440.98;108269;1267;59747;-72
2021/12/16 11:01:49;;;;;;;24.60;12.40;;;;;;;0.92;75.66;98435.46;108325;1269;59713;-73
2021/12/16 11:04:26;;;;;;;18.40;9.10;;;;;;;0.94;75.54;98430.31;108331;1269;71486;-69
2021/12/16 11:07:09;;;;;;;24.90;13.20;;;;;;;0.95;74.70;98430.27;108288;1269;69013;-69
2021/12/16 11:09:41;;;;;;;21.80;11.10;;;;;;;0.93;75.16;98438.04;108314;1269;68581;-69
2021/12/16 11:12:25;;;;;;;18.60;10.00;;;;;;;0.96;75.80;98432.32;108325;1271;59744;-72
2021/12/16 11:14:59;;;;;;;21.00;11.50;;;;;;;1.02;76.11;98432.89;108173;1269;59735;-71
2021/12/16 11:17:36;;;;;;;20.40;11.70;;;;;;;1.03;74.56;98433.57;108304;1269;71462;-73
2021/12/16 11:20:14;;;;;;;17.40;8.50;;;;;;;0.98;73.76;98431.61;108346;1269;69402;-69
2021/12/16 11:22:48;;;;;;;14.10;8.00;;;;;;;1.01;75.04;98433.25;108345;1269;69831;-73
2021/12/16 11:25:32;;;;;;;18.60;11.30;;;;;;;1.05;75.18;98429.24;108350;1269;59691;-68
2021/12/16 11:28:15;;;;;;;16.10;8.20;;;;;;;1.07;74.43;98428.52;108307;1269;59703;-73
2021/12/16 11:31:01;;;;;;;17.20;8.90;;;;;;;1.08;75.20;98423.86;108335;1269;71661;-72
2021/12/16 11:33:35;;;;;;;20.50;11.00;;;;;;;1.08;75.40;98418.71;108305;1269;67093;-72
2021/12/16 11:36:26;;;;;;;26.30;13.70;;;;;;;1.13;74.78;98422.39;108237;1270;69330;-69
2021/12/16 11:39:03;;;;;;;25.10;12.60;;;;;;;1.01;73.16;98421.08;108333;1269;59745;-72
2021/12/16 11:41:41;;;;;;;24.10;13.40;;;;;;;0.91;73.62;98421.60;108403;1269;59780;-72
2021/12/16 11:44:17;;;;;;;18.40;9.80;;;;;;;0.88;74.07;98421.31;108308;1269;71931;-69
2021/12/16 11:46:49;;;;;;;19.40;9.60;;;;;;;0.91;74.31;98415.94;108316;1269;68626;-69
2021/12/16 11:49:47;;;;;;;17.80;10.40;;;;;;;0.90;74.31;98411.14;108308;1269;70007;-71
2021/12/16 11:52:23;;;;;;;13.60;8.00;;;;;;;0.92;74.16;98411.96;108329;1269;59700;-69
2021/12/16 11:54:55;;;;;;;24.00;11.30;;;;;;;0.97;74.06;98415.30;108336;1269;59760;-73
2021/12/16 11:57:37;;;;;;;21.40;11.70;;;;;;;0.95;73.68;98412.95;108314;1269;70809;-73
2021/12/16 12:00:11;;;;;;;25.10;13.20;;;;;;;0.93;73.84;98414.19;108152;1269;69409;-70
2021/12/16 12:02:45;;;;;;;27.20;12.80;;;;;;;0.92;73.79;98413.51;108335;1269;69825;-73
2021/12/16 12:05:34;;;;;;;25.10;12.80;;;;;;;0.88;73.40;98413.40;108334;1268;59715;-72
2021/12/16 12:08:05;;;;;;;24.60;11.20;;;;;;;0.83;73.89;98415.23;108254;1269;59760;-73
2021/12/16 12:10:48;;;;;;;23.30;11.70;;;;;;;0.80;74.21;98414.60;108363;1269;72126;-70
2021/12/16 12:13:26;;;;;;;25.50;13.10;;;;;;;0.79;74.35;98412.55;108353;1269;68731;-72
2021/12/16 12:16:03;;;;;;;21.50;11.00;;;;;;;0.77;74.01;98411.04;108374;1269;69315;-70
2021/12/16 12:18:50;;;;;;;24.20;12.70;;;;;;;0.80;74.05;98406.35;108298;1269;59754;-70
2021/12/16 12:21:31;;;;;;;15.40;8.50;;;;;;;0.84;74.27;98413.50;108165;1272;59744;-71
2021/12/16 12:24:03;;;;;;;20.00;10.50;;;;;;;0.88;73.90;98408.09;108373;1269;71632;-71
2021/12/16 12:26:35;;;;;;;24.50;12.00;;;;;;;0.93;73.80;98408.52;108256;1269;68721;-69
2021/12/16 12:29:09;;;;;;;24.50;12.10;;;;;;;0.89;73.64;98409.80;108196;1269;68669;-71
2021/12/16 12:31:44;;;;;;;22.30;10.10;;;;;;;0.89;73.46;98404.83;108268;1269;59725;-72
2021/12/16 12:34:15;;;;;;;18.50;9.20;;;;;;;0.90;73.69;98410.63;108053;1270;59770;-69
2021/12/16 12:36:47;;;;;;;24.00;12.00;;;;;;;0.88;73.77;98416.14;108109;1272;71691;-70
2021/12/16 12:39:21;;;;;;;23.70;10.40;;;;;;;0.81;73.45;98409.95;108064;1272;68565;-70
2021/12/16 12:41:51;;;;;;;21.00;10.90;;;;;;;0.75;73.99;98402.51;108066;1272;69869;-71
2021/12/16 12:44:21;;;;;;;16.00;8.70;;;;;;;0.79;74.24;98401.04;108090;1272;59735;-69
2021/12/16 12:46:51;;;;;;;28.30;12.60;;;;;;;0.84;73.81;98399.59;108137;1272;59664;-71
2021/12/16 12:49:25;;;;;;;;;;;;;;;0.83;73.67;98399.23;108152;1272;72154;-73
2021/12/16 12:52:12;;;;;;;21.60;11.40;;;;;;;0.83;73.32;98400.29;108098;1272;68749;-71
2021/12/16 12:54:46;;;;;;;22.80;11.50;;;;;;;0.84;73.43;98399.25;108154;1272;68623;-70
2021/12/16 12:57:21;;;;;;;21.60;11.10;;;;;;;0.86;73.77;98394.39;108170;1272;60131;-72
2021/12/16 12:59:51;;;;;;;23.80;12.10;;;;;;;0.87;73.55;98396.27;108264;1272;59691;-72
2021/12/16 13:02:25;;;;;;;27.50;13.80;;;;;;;0.85;73.70;98398.86;108125;1272;72181;-73
2021/12/16 13:05:00;;;;;;;26.70;13.00;;;;;;;0.84;74.22;98399.23;108177;1272;69245;-69
2021/12/16 13:07:35;;;;;;;20.50;10.80;;;;;;;0.83;74.08;98400.65;108118;1272;70070;-69
2021/12/16 13:10:15;;;;;;;25.10;11.90;;;;;;;0.81;74.12;98399.82;108252;1269;59770;-71
2021/12/16 13:13:03;;;;;;;27.70;14.20;;;;;;;0.78;74.25;98394.02;108349;1269;59684;-71
2021/12/16 13:15:52;;;;;;;23.50;11.20;;;;;;;0.74;74.16;98395.31;108389;1269;70589;-71
2021/12/16 13:26:47;;;;;;;14.10;7.90;;;;;;;0.68;74.27;98396.95;108259;1272;59757;-70
2021/12/16 13:32:10;;;;;;;22.40;11.00;;;;;;;0.68;74.33;98409.64;108098;1272;69353;-70
2021/12/16 13:34:48;;;;;;;25.50;12.40;;;;;;;0.66;74.35;98412.42;108064;1272;68762;-70
2021/12/16 13:37:23;;;;;;;19.40;9.60;;;;;;;0.64;74.76;98408.52;108092;1272;59734;-68
2021/12/16 13:40:03;;;;;;;18.30;9.90;;;;;;;0.66;74.69;98408.83;108122;1272;59672;-69
2021/12/16 13:42:57;;;;;;;26.00;12.60;;;;;;;0.68;74.91;98407.95;108111;1272;72094;-72
2021/12/16 13:45:35;;;;;;;24.90;13.80;;;;;;;0.66;75.36;98412.25;108143;1272;68481;-72
2021/12/16 13:48:56;;;;;;;28.10;14.60;;;;;;;0.64;75.21;98406.45;108105;1272;68588;-67
2021/12/16 14:01:10;;;;;;;18.50;10.00;;;;;;;0.52;74.80;98406.84;107694;1277;67921;-72
2021/12/16 14:03:49;;;;;;;16.80;9.10;;;;;;;0.54;75.34;98410.92;107587;1278;68491;-71
2021/12/16 14:06:35;;;;;;;20.40;9.80;;;;;;;0.55;75.48;98415.52;107701;1278;59783;-67
2021/12/16 14:09:18;;;;;;;26.70;12.50;;;;;;;0.55;75.66;98415.03;107594;1277;59790;-68
2021/12/16 14:14:56;;;;;;;36.90;18.90;;;;;;;0.48;75.17;98407.40;107561;1277;67978;-71
2021/12/16 14:23:31;;;;;;;23.60;13.20;;;;;;;0.40;75.64;98403.25;107617;1277;59638;-67
2021/12/16 14:26:39;;;;;;;22.80;12.30;;;;;;;0.41;76.14;98410.61;107731;1275;70961;-70
2021/12/16 14:37:29;;;;;;;24.20;14.00;;;;;;;0.40;76.02;98413.89;108129;1272;59769;-72
2021/12/16 14:40:23;;;;;;;27.20;13.60;;;;;;;0.30;76.37;98411.82;108144;1272;71583;-71
2021/12/16 14:43:17;;;;;;;24.50;13.10;;;;;;;0.27;76.47;98413.75;108135;1272;67915;-68
2021/12/16 14:45:56;;;;;;;23.70;13.10;;;;;;;0.29;76.17;98407.91;108122;1272;68930;-74
2021/12/16 14:48:28;;;;;;;27.60;14.00;;;;;;;0.27;76.11;98410.84;108138;1272;59712;-68
2021/12/16 14:51:03;;;;;;;21.50;12.00;;;;;;;0.24;76.32;98420.98;108144;1272;59748;-73
2021/12/16 14:53:50;;;;;;;31.00;18.00;;;;;;;0.19;76.76;98421.08;108098;1272;71703;-73
2021/12/16 14:56:33;;;;;;;28.70;13.40;;;;;;;0.14;77.32;98422.36;108092;1272;68823;-69
2021/12/16 14:59:09;;;;;;;26.10;12.90;;;;;;;0.15;76.87;98423.36;108050;1272;68890;-71
2021/12/16 15:01:45;;;;;;;22.40;12.00;;;;;;;0.15;76.87;98422.17;108017;1272;59776;-72
2021/12/16 15:04:20;;;;;;;22.80;11.60;;;;;;;0.14;76.79;98424.41;108123;1272;59709;-73
2021/12/16 15:06:59;;;;;;;27.30;13.60;;;;;;;0.13;76.85;98425.10;108119;1272;71664;-70
2021/12/16 15:09:33;;;;;;;28.70;14.80;;;;;;;0.10;77.10;98427.23;108059;1272;67995;-70
2021/12/16 15:12:18;;;;;;;29.10;15.40;;;;;;;0.02;77.99;98423.23;108062;1272;68823;-74
2021/12/16 15:39:37;;;;;;;19.60;10.10;;;;;;;-0.13;78.89;98433.20;108352;1273;70147;-75
2021/12/16 15:45:10;;;;;;;17.50;10.60;;;;;;;-0.04;78.87;98440.45;108326;1269;59726;-73